Time;durP1;ratioP1;P1;durP2;ratioP2;P2;SDS_P1;SDS_P2;PMS_P1;PMS_P2;Temp;Humidity;BMP_temperature;BMP_pressure;BME280_temperature;BME280_humidity;BME280_pressure;Samples;Min_cycle;Max_cycle;Signal;HPM_P1;HPM_P2
2022/01/28 00:00:41;;;;;;;26.00;12.70;;;;;;;2.00;100.00;-23175.07;1704180;82;21043;-59
2022/01/28 00:03:09;;;;;;;31.65;14.28;;;;;;;2.05;100.00;-23176.33;1701220;82;21854;-58
2022/01/28 00:05:37;;;;;;;24.32;13.40;;;;;;;2.05;100.00;-23176.33;1711638;82;20912;-58
2022/01/28 00:08:06;;;;;;;26.60;13.25;;;;;;;2.05;100.00;-23176.33;1703415;82;21444;-58
2022/01/28 00:10:34;;;;;;;25.55;12.88;;;;;;;2.06;100.00;-23176.80;1701408;82;21089;-58
2022/01/28 00:15:39;;;;;;;25.68;13.18;;;;;;;2.07;100.00;-23177.12;1670519;85;21149;-58
2022/01/28 00:37:23;;;;;;;19.60;10.28;;;;;;;2.03;100.00;-23175.70;1709597;82;21572;-60
2022/01/28 00:39:35;;;;;;;18.70;10.30;;;;;;;2.05;100.00;-23176.33;1717052;82;21470;-58
2022/01/28 00:42:03;;;;;;;20.48;11.00;;;;;;;2.07;100.00;-23176.96;1728364;81;21671;-59
2022/01/28 00:44:30;;;;;;;22.25;11.78;;;;;;;2.08;100.00;-23177.27;1675618;84;21499;-59
2022/01/28 00:46:57;;;;;;;21.55;11.80;;;;;;;2.10;100.00;-23177.91;1723445;82;21640;-59
2022/01/28 00:49:24;;;;;;;24.45;11.57;;;;;;;2.11;100.00;-23178.38;1718691;82;22246;-59
2022/01/28 00:51:51;;;;;;;25.08;11.90;;;;;;;2.11;100.00;-23178.38;1714220;81;21101;-59
2022/01/28 00:54:18;;;;;;;20.75;10.53;;;;;;;2.13;100.00;-23179.01;1723854;82;21139;-59
2022/01/28 00:56:46;;;;;;;22.35;11.12;;;;;;;2.15;100.00;-23179.49;1723955;82;21062;-59
2022/01/28 00:59:13;;;;;;;21.30;10.78;;;;;;;2.17;100.00;-23180.12;1727526;82;21240;-59
2022/01/28 01:01:40;;;;;;;23.50;10.65;;;;;;;2.19;100.00;-23180.75;1723832;82;21492;-59
2022/01/28 01:04:07;;;;;;;19.50;10.20;;;;;;;2.20;100.00;-23181.06;1720425;82;21078;-60
2022/01/28 01:06:35;;;;;;;19.37;10.15;;;;;;;2.23;100.00;-23181.85;1711619;82;21981;-59
2022/01/28 01:09:02;;;;;;;19.77;10.63;;;;;;;2.26;100.00;-23182.80;1717074;82;21634;-59
2022/01/28 01:11:31;;;;;;;19.80;10.20;;;;;;;2.28;100.00;-23183.59;1719009;81;21097;-60
2022/01/28 01:13:59;;;;;;;20.72;11.10;;;;;;;2.31;100.00;-23184.21;1721629;81;21570;-58
2022/01/28 01:16:34;;;;;;;16.27;9.75;;;;;;;2.33;100.00;-23184.85;1717578;81;21060;-59
2022/01/28 01:21:39;;;;;;;21.77;10.28;;;;;;;2.37;100.00;-23186.27;1713510;82;21511;-58
2022/01/28 01:24:09;;;;;;;18.52;9.45;;;;;;;2.40;100.00;-23187.06;1707840;82;21120;-59
2022/01/28 01:26:40;;;;;;;17.73;9.88;;;;;;;2.41;100.00;-23187.37;1717221;82;21090;-59
2022/01/28 01:29:09;;;;;;;18.17;9.13;;;;;;;2.45;100.00;-23188.48;1720252;82;21642;-59
2022/01/28 01:31:39;;;;;;;19.87;9.53;;;;;;;2.48;100.00;-23189.42;1711067;81;21524;-61
2022/01/28 01:34:12;;;;;;;21.70;9.88;;;;;;;2.48;100.00;-23189.58;1707056;82;21680;-59
2022/01/28 01:36:34;;;;;;;18.45;9.48;;;;;;;2.50;100.00;-23190.21;1722359;81;21097;-59
2022/01/28 01:39:02;;;;;;;21.62;10.63;;;;;;;2.50;100.00;-23190.21;1714238;81;21607;-58
2022/01/28 01:41:37;;;;;;;22.60;11.00;;;;;;;2.50;100.00;-23190.21;1714603;81;21098;-58
2022/01/28 01:45:16;;;;;;;22.70;11.60;;;;;;;2.53;100.00;-23191.15;1723121;82;22249;-60
2022/01/28 01:54:41;;;;;;;20.55;10.48;;;;;;;2.57;100.00;-23192.26;1715175;81;20149;-59
2022/01/28 01:57:11;;;;;;;23.32;11.18;;;;;;;2.55;100.00;-23191.79;1722986;82;21814;-59
2022/01/28 01:59:42;;;;;;;19.92;10.60;;;;;;;2.54;100.00;-23191.31;1725464;81;21019;-59
2022/01/28 02:02:09;;;;;;;26.87;11.55;;;;;;;2.50;100.00;-23190.21;1717703;81;21628;-59
2022/01/28 02:04:36;;;;;;;20.08;11.12;;;;;;;2.50;100.00;-23190.05;1721991;82;21066;-59
2022/01/28 02:07:05;;;;;;;23.83;11.78;;;;;;;2.48;100.00;-23189.58;1694438;83;21050;-59
2022/01/28 02:09:32;;;;;;;23.52;11.00;;;;;;;2.50;100.00;-23190.21;1695223;83;21095;-58
2022/01/28 02:11:59;;;;;;;29.10;12.00;;;;;;;2.51;100.00;-23190.52;1711477;81;21081;-58
2022/01/28 02:14:27;;;;;;;26.73;11.53;;;;;;;2.51;100.00;-23190.52;1720936;82;21047;-58
2022/01/28 02:16:55;;;;;;;29.02;11.95;;;;;;;2.48;100.00;-23189.58;1709200;82;21141;-59
2022/01/28 02:19:22;;;;;;;26.35;13.62;;;;;;;2.49;100.00;-23189.89;1707736;82;21114;-59
2022/01/28 02:21:51;;;;;;;30.72;13.60;;;;;;;2.45;100.00;-23188.48;1685884;83;21510;-59
2022/01/28 02:24:24;;;;;;;27.37;13.65;;;;;;;2.43;100.00;-23188.00;1696253;82;21129;-60
2022/01/28 02:26:46;;;;;;;28.52;13.38;;;;;;;2.43;100.00;-23188.00;1695035;82;21059;-60
2022/01/28 02:29:25;;;;;;;27.27;13.35;;;;;;;2.42;100.00;-23187.84;1691840;82;21218;-60
2022/01/28 02:31:42;;;;;;;27.48;13.70;;;;;;;2.41;100.00;-23187.37;1693440;83;21130;-59
2022/01/28 02:34:11;;;;;;;28.40;13.72;;;;;;;2.40;100.00;-23187.06;1689825;82;21570;-59
2022/01/28 02:36:38;;;;;;;30.55;14.68;;;;;;;2.39;100.00;-23186.74;1687045;83;21049;-58
2022/01/28 02:39:06;;;;;;;30.32;14.35;;;;;;;2.37;100.00;-23186.11;1684995;83;21066;-61
2022/01/28 02:41:37;;;;;;;29.37;13.90;;;;;;;2.37;100.00;-23186.11;1691253;83;21069;-59
2022/01/28 02:44:19;;;;;;;27.93;14.15;;;;;;;2.36;100.00;-23185.80;1685660;83;21054;-60
2022/01/28 02:46:49;;;;;;;33.25;15.03;;;;;;;2.36;100.00;-23185.95;1691634;83;21677;-60
2022/01/28 02:49:10;;;;;;;32.40;14.25;;;;;;;2.38;100.00;-23186.43;1686473;82;21116;-59
2022/01/28 02:51:37;;;;;;;33.08;15.35;;;;;;;2.39;100.00;-23186.74;1692199;83;21071;-61
2022/01/28 02:54:18;;;;;;;29.00;14.47;;;;;;;2.38;100.00;-23186.58;1685355;82;21063;-59
2022/01/28 02:56:55;;;;;;;31.30;15.35;;;;;;;2.38;100.00;-23186.43;1688440;83;21023;-60
2022/01/28 02:59:20;;;;;;;27.82;15.60;;;;;;;2.36;100.00;-23185.80;1690396;83;21125;-60
2022/01/28 03:01:47;;;;;;;28.85;14.65;;;;;;;2.33;100.00;-23184.85;1689311;83;20927;-59
2022/01/28 03:04:39;;;;;;;29.67;14.98;;;;;;;2.31;100.00;-23184.21;1691894;83;21097;-58
2022/01/28 03:06:44;;;;;;;27.52;14.20;;;;;;;2.28;100.00;-23183.59;1688818;83;21103;-59
2022/01/28 03:09:18;;;;;;;30.92;13.65;;;;;;;2.27;100.00;-23183.27;1689626;82;21197;-59
2022/01/28 03:14:33;;;;;;;32.50;14.43;;;;;;;2.21;100.00;-23181.38;1687780;82;21638;-60
2022/01/28 03:17:13;;;;;;;26.75;14.33;;;;;;;2.16;100.00;-23179.80;1689653;83;21698;-59
2022/01/28 03:19:45;;;;;;;29.57;13.85;;;;;;;2.09;100.00;-23177.75;1682267;83;21177;-58
2022/01/28 03:22:10;;;;;;;29.07;13.03;;;;;;;2.01;100.00;-23175.23;1677256;83;22459;-59
2022/01/28 03:24:37;;;;;;;30.08;13.30;;;;;;;1.93;100.00;-23172.86;1680246;84;20992;-59
2022/01/28 03:27:11;;;;;;;30.50;14.00;;;;;;;1.87;100.00;-23170.96;1679104;84;21067;-60
2022/01/28 03:29:35;;;;;;;28.57;13.68;;;;;;;1.80;100.00;-23168.91;1672780;84;21052;-59
2022/01/28 03:32:02;;;;;;;29.77;13.90;;;;;;;1.75;100.00;-23167.18;1670334;83;21105;-59
2022/01/28 03:34:29;;;;;;;29.48;14.85;;;;;;;1.69;100.00;-23165.44;1682842;83;21150;-59
2022/01/28 03:36:56;;;;;;;28.32;13.75;;;;;;;1.62;100.00;-23163.39;1682996;83;21632;-59
2022/01/28 03:39:24;;;;;;;27.13;13.65;;;;;;;1.58;100.00;-23162.13;1674484;84;21095;-60
2022/01/28 03:41:51;;;;;;;30.82;14.10;;;;;;;1.51;100.00;-23160.07;1667637;83;21131;-59
2022/01/28 03:44:18;;;;;;;31.25;13.93;;;;;;;1.46;100.00;-23158.50;1678604;84;21689;-59
2022/01/28 03:46:45;;;;;;;28.23;14.20;;;;;;;1.40;100.00;-23156.76;1682242;83;21031;-59
2022/01/28 03:49:12;;;;;;;29.75;13.95;;;;;;;1.35;100.00;-23155.18;1677248;84;21080;-59
2022/01/28 03:51:39;;;;;;;30.40;13.88;;;;;;;1.25;100.00;-23152.18;1684583;83;21091;-59
2022/01/28 03:54:06;;;;;;;30.72;14.25;;;;;;;1.19;100.00;-23149.17;1673209;83;21398;-58
2022/01/28 03:56:35;;;;;;;29.60;14.30;;;;;;;1.10;100.00;-22983.76;1682754;82;20971;-59
2022/01/28 03:59:02;;;;;;;29.02;14.00;;;;;;;1.03;100.00;-22818.69;1679722;83;21094;-59
2022/01/28 04:01:33;;;;;;;31.80;14.78;;;;;;;0.98;100.00;-22654.42;1677126;84;21067;-59
2022/01/28 04:11:58;;;;;;;28.62;14.18;;;;;;;0.84;100.00;-21998.83;1682833;83;20195;-59
2022/01/28 04:17:21;;;;;;;32.20;15.58;;;;;;;0.76;100.00;-21670.59;1637714;84;21890;-59
2022/01/28 04:19:49;;;;;;;33.05;15.00;;;;;;;0.74;100.00;-21670.00;1690955;82;21665;-59
2022/01/28 04:22:18;;;;;;;28.05;15.25;;;;;;;0.71;100.00;-21669.27;1727295;81;21118;-58
2022/01/28 04:24:44;;;;;;;25.65;13.68;;;;;;;0.66;100.00;-21667.81;1719424;82;21500;-59
2022/01/28 04:27:11;;;;;;;30.77;15.38;;;;;;;0.63;100.00;-21504.10;1704366;82;21886;-60
2022/01/28 04:29:39;;;;;;;32.10;15.13;;;;;;;0.60;100.00;-21503.23;1721479;82;21093;-59
2022/01/28 04:32:08;;;;;;;30.12;14.78;;;;;;;0.58;100.00;-21502.80;1723381;81;21096;-60
2022/01/28 04:34:37;;;;;;;29.75;14.87;;;;;;;0.58;100.00;-21502.66;1715352;82;21069;-59
2022/01/28 04:37:35;;;;;;;32.58;15.75;;;;;;;0.56;100.00;-21502.22;1699883;82;21121;-59
2022/01/28 04:42:15;;;;;;;33.38;15.55;;;;;;;0.53;100.00;-21664.31;1719228;82;21537;-59
2022/01/28 04:52:52;;;;;;;33.20;14.30;;;;;;;0.53;100.00;-21664.31;1700011;82;21645;-59
2022/01/28 04:58:43;;;;;;;27.82;14.10;;;;;;;0.53;100.00;-21826.97;1716439;82;21046;-59
2022/01/28 05:00:30;;;;;;;29.27;15.13;;;;;;;0.49;100.00;-21825.94;1682493;81;21547;-60
2022/01/28 05:03:12;;;;;;;33.65;15.78;;;;;;;0.48;100.00;-21662.85;1716946;81;21112;-59
2022/01/28 05:08:14;;;;;;;29.95;14.80;;;;;;;0.49;100.00;-21663.00;1713368;81;21106;-59
2022/01/28 05:10:45;;;;;;;29.18;15.00;;;;;;;0.48;100.00;-21662.85;1717093;82;21014;-59
2022/01/28 05:13:22;;;;;;;32.48;14.85;;;;;;;0.44;100.00;-21498.89;1715219;82;21038;-59
2022/01/28 05:26:26;;;;;;;34.67;16.07;;;;;;;0.31;100.00;-21169.60;1708384;82;21149;-59
2022/01/28 05:28:51;;;;;;;30.88;14.80;;;;;;;0.24;100.00;-21005.13;1704565;82;21074;-60
2022/01/28 05:31:18;;;;;;;30.60;14.98;;;;;;;0.22;100.00;-20841.66;1695793;82;21126;-59
2022/01/28 05:33:46;;;;;;;31.55;15.48;;;;;;;0.18;100.00;-20840.69;1713817;83;21473;-59
2022/01/28 05:36:13;;;;;;;34.95;16.17;;;;;;;0.16;100.00;-20677.38;1708746;83;22274;-59
2022/01/28 05:38:41;;;;;;;30.60;15.13;;;;;;;0.13;100.00;-20676.55;1708630;81;21074;-59
2022/01/28 05:41:08;;;;;;;31.48;15.75;;;;;;;0.09;100.00;-20512.69;1702562;83;21603;-60
2022/01/28 05:43:35;;;;;;;31.70;15.70;;;;;;;0.08;100.00;-20512.42;1712407;81;21508;-59
2022/01/28 05:46:01;;;;;;;33.63;15.95;;;;;;;0.04;100.00;-20348.72;1704899;83;21030;-59
2022/01/28 05:48:28;;;;;;;29.55;14.73;;;;;;;-0.01;100.00;-20347.50;1708189;83;21099;-60
2022/01/28 05:50:55;;;;;;;31.95;15.20;;;;;;;-0.01;100.00;-20184.77;1707258;82;21532;-59
2022/01/28 05:53:21;;;;;;;33.63;15.93;;;;;;;-0.03;100.00;-20184.09;1708475;82;21019;-60
2022/01/28 05:55:48;;;;;;;31.97;15.18;;;;;;;-0.05;100.00;-20020.82;1708946;83;22242;-60
2022/01/28 05:58:14;;;;;;;29.55;16.35;;;;;;;-0.03;100.00;-20021.35;1710373;83;21488;-59
2022/01/28 06:00:41;;;;;;;34.48;15.53;;;;;;;-0.05;100.00;-20020.96;1710671;82;21107;-60
2022/01/28 06:03:07;;;;;;;29.65;14.55;;;;;;;-0.03;100.00;-20021.35;1710463;82;21098;-60
2022/01/28 06:05:34;;;;;;;31.60;16.10;;;;;;;0.01;100.00;-20022.28;1716665;82;21067;-59
2022/01/28 06:08:01;;;;;;;29.40;15.00;;;;;;;-0.05;100.00;-20020.96;1677011;83;21807;-59
2022/01/28 06:10:28;;;;;;;32.83;16.25;;;;;;;-0.05;100.00;-19858.21;1705203;81;21105;-59
2022/01/28 06:12:55;;;;;;;32.35;16.00;;;;;;;-0.05;100.00;-19858.21;1706556;82;21050;-59
2022/01/28 06:15:21;;;;;;;30.95;14.75;;;;;;;-0.03;100.00;-20021.49;1716164;81;21395;-58
2022/01/28 06:17:49;;;;;;;36.45;16.20;;;;;;;0.02;100.00;-20022.55;1697873;83;21105;-61
2022/01/28 06:20:19;;;;;;;37.95;16.48;;;;;;;0.03;100.00;-20185.70;1713385;82;21975;-61
2022/01/28 06:22:47;;;;;;;31.30;15.50;;;;;;;0.05;100.00;-20348.86;1724588;82;21476;-60
2022/01/28 06:25:15;;;;;;;35.48;15.32;;;;;;;0.05;100.00;-20186.24;1717648;82;21149;-60
2022/01/28 06:27:43;;;;;;;33.15;16.20;;;;;;;0.08;100.00;-20186.91;1699769;82;22275;-60
2022/01/28 06:30:13;;;;;;;30.02;14.95;;;;;;;0.11;100.00;-20350.62;1705679;82;21141;-59
2022/01/28 06:32:40;;;;;;;32.78;16.52;;;;;;;0.17;100.00;-20351.96;1709192;82;21139;-60
2022/01/28 06:35:08;;;;;;;31.95;15.98;;;;;;;0.20;100.00;-20515.70;1710815;82;21081;-59
2022/01/28 06:37:38;;;;;;;31.48;16.17;;;;;;;0.27;100.00;-20680.27;1711589;82;21035;-60
2022/01/28 06:40:10;;;;;;;29.98;15.38;;;;;;;0.32;100.00;-20681.65;1702807;82;21536;-60
2022/01/28 06:42:37;;;;;;;35.48;16.75;;;;;;;0.39;100.00;-20846.26;1712890;82;21671;-59
2022/01/28 06:45:06;;;;;;;37.53;17.12;;;;;;;0.45;100.00;-21010.75;1706180;82;21074;-61
2022/01/28 06:47:35;;;;;;;46.37;20.35;;;;;;;0.52;100.00;-21175.42;1708679;82;21476;-59
2022/01/28 06:50:08;;;;;;;48.60;21.87;;;;;;;0.55;100.00;-21176.41;1703642;82;21078;-60
2022/01/28 06:52:35;;;;;;;45.58;20.27;;;;;;;0.58;100.00;-21176.98;1705513;82;21541;-60
2022/01/28 06:55:02;;;;;;;45.65;19.95;;;;;;;0.61;100.00;-21177.83;1710762;82;21108;-60
2022/01/28 06:57:29;;;;;;;43.68;20.35;;;;;;;0.65;100.00;-21178.96;1710663;82;21599;-60
2022/01/28 06:59:57;;;;;;;40.38;18.27;;;;;;;0.62;100.00;-21015.25;1708859;82;21039;-60
2022/01/28 07:02:24;;;;;;;35.05;16.57;;;;;;;0.66;100.00;-21016.38;1707715;83;21680;-60
2022/01/28 07:04:51;;;;;;;35.23;16.97;;;;;;;0.70;100.00;-21017.64;1706764;82;20969;-60
2022/01/28 07:07:20;;;;;;;33.92;15.58;;;;;;;0.75;100.00;-21181.80;1707116;82;21536;-60
2022/01/28 07:09:48;;;;;;;35.25;16.10;;;;;;;0.83;100.00;-21183.93;1709730;83;21067;-61
2022/01/28 07:12:15;;;;;;;32.98;16.10;;;;;;;0.90;100.00;-21348.70;1712015;82;21479;-60
2022/01/28 07:14:42;;;;;;;31.02;15.88;;;;;;;0.93;100.00;-21349.56;1716283;82;21051;-60
2022/01/28 07:17:09;;;;;;;31.02;16.62;;;;;;;0.97;100.00;-21350.85;1672260;83;21314;-61
2022/01/28 07:19:37;;;;;;;41.65;17.35;;;;;;;1.04;100.00;-21515.66;1685986;82;21565;-59
2022/01/28 07:22:05;;;;;;;35.17;17.62;;;;;;;1.15;100.00;-21681.67;1707651;81;22374;-60
2022/01/28 07:24:32;;;;;;;34.40;17.35;;;;;;;1.21;100.00;-21683.42;1720809;81;21052;-60
2022/01/28 07:26:59;;;;;;;33.55;17.55;;;;;;;1.25;100.00;-21684.59;1715645;81;21612;-60
2022/01/28 07:29:30;;;;;;;36.00;17.42;;;;;;;1.32;100.00;-21686.33;1709436;81;21028;-59
2022/01/28 07:31:57;;;;;;;39.10;18.98;;;;;;;1.39;100.00;-21851.55;1706649;81;21139;-61
2022/01/28 07:34:24;;;;;;;33.88;16.75;;;;;;;1.50;100.00;-22017.54;1707243;81;21966;-60
2022/01/28 07:36:52;;;;;;;35.73;17.80;;;;;;;1.56;100.00;-22182.38;1709539;81;21678;-60
2022/01/28 07:39:19;;;;;;;38.55;17.82;;;;;;;1.58;100.00;-22019.91;1703779;81;22213;-60
2022/01/28 07:41:46;;;;;;;37.80;20.05;;;;;;;1.62;100.00;-22021.10;1704763;81;21074;-60
2022/01/28 07:44:13;;;;;;;44.27;20.20;;;;;;;1.70;100.00;-22023.48;1717736;81;21063;-60
2022/01/28 07:46:40;;;;;;;39.98;20.00;;;;;;;1.77;100.00;-22188.52;1717046;81;21122;-59
2022/01/28 07:49:07;;;;;;;36.58;18.42;;;;;;;1.85;100.00;-22190.76;1714295;81;21137;-61
2022/01/28 07:51:35;;;;;;;42.90;20.20;;;;;;;1.90;100.00;-22192.11;1721845;81;21071;-60
2022/01/28 07:54:04;;;;;;;38.75;20.48;;;;;;;1.95;100.00;-22356.76;1716518;81;21032;-60
2022/01/28 07:56:31;;;;;;;41.08;20.37;;;;;;;2.05;100.00;-22522.79;1722954;81;21076;-59
2022/01/28 07:58:59;;;;;;;33.38;17.25;;;;;;;2.15;100.00;-22689.03;1718023;81;21170;-59
2022/01/28 08:01:26;;;;;;;34.00;17.25;;;;;;;2.26;100.00;-23018.66;1712678;81;21064;-60
2022/01/28 08:03:53;;;;;;;33.15;17.65;;;;;;;2.31;100.00;-23020.06;1704604;81;21033;-60
2022/01/28 08:06:21;;;;;;;36.20;18.48;;;;;;;2.33;100.00;-22857.63;1685728;83;21059;-59
2022/01/28 08:08:48;;;;;;;36.48;18.82;;;;;;;2.33;100.00;-22857.63;1685369;83;21096;-59
2022/01/28 08:11:15;;;;;;;33.88;17.85;;;;;;;2.40;100.00;-22696.40;1718862;82;21126;-61
2022/01/28 08:13:44;;;;;;;38.78;19.77;;;;;;;2.53;100.00;-22863.67;1712797;81;21025;-59
2022/01/28 08:16:11;;;;;;;39.58;20.10;;;;;;;2.67;100.00;-23194.46;1713940;81;21514;-59
2022/01/28 08:18:38;;;;;;;39.92;19.98;;;;;;;2.84;100.00;-23200.62;1718942;81;21634;-59
2022/01/28 08:21:05;;;;;;;40.38;19.92;;;;;;;2.98;100.00;-23204.71;1708160;82;21788;-59
2022/01/28 08:23:33;;;;;;;37.38;19.02;;;;;;;3.07;100.00;-23207.55;1706994;81;21143;-59
2022/01/28 08:26:00;;;;;;;36.53;18.52;;;;;;;3.15;100.00;-23210.07;1704723;81;21774;-59
2022/01/28 08:28:28;;;;;;;36.88;18.92;;;;;;;3.20;100.00;-23211.33;1706699;81;21123;-59
2022/01/28 08:30:55;;;;;;;37.88;19.07;;;;;;;3.20;100.00;-23211.33;1706525;82;21069;-60
2022/01/28 08:33:22;;;;;;;36.15;18.23;;;;;;;3.20;100.00;-23211.33;1717841;81;21122;-58
2022/01/28 08:35:53;;;;;;;33.53;17.20;;;;;;;3.15;100.00;-23208.96;1707225;81;21824;-58
2022/01/28 08:38:30;;;;;;;38.83;19.95;;;;;;;3.08;100.00;-22716.68;1705331;82;21146;-60
2022/01/28 08:40:56;;;;;;;37.85;17.82;;;;;;;3.01;100.00;-21733.96;1705853;81;21081;-59
2022/01/28 08:43:24;;;;;;;36.73;18.00;;;;;;;2.96;100.00;-21078.82;1702262;82;21111;-60
2022/01/28 08:45:52;;;;;;;35.73;17.80;;;;;;;2.89;100.00;-20586.32;1702654;81;21029;-59
2022/01/28 08:48:19;;;;;;;37.42;18.02;;;;;;;2.87;100.00;-20258.95;1707804;81;22230;-60
2022/01/28 08:50:46;;;;;;;34.75;17.25;;;;;;;2.86;100.00;-20095.32;1704809;81;22333;-60
2022/01/28 08:53:12;;;;;;;34.53;17.32;;;;;;;2.85;100.00;-19931.56;1709731;81;21085;-59
2022/01/28 08:55:39;;;;;;;31.97;17.32;;;;;;;2.80;100.00;-19603.26;1714897;81;21066;-59
2022/01/28 08:58:08;;;;;;;32.98;17.60;;;;;;;2.78;100.00;-19439.24;1697999;83;21109;-59
2022/01/28 09:00:35;;;;;;;31.25;17.25;;;;;;;2.78;100.00;-19439.24;1713300;81;21137;-59
2022/01/28 09:03:02;;;;;;;42.40;18.62;;;;;;;2.78;100.00;-19439.24;1715039;81;21446;-60
2022/01/28 09:05:29;;;;;;;32.78;17.85;;;;;;;2.84;100.00;-19440.76;1704472;81;21612;-60
2022/01/28 09:07:57;;;;;;;36.42;18.00;;;;;;;2.89;100.00;-19768.83;1711338;81;21553;-60
2022/01/28 09:10:29;;;;;;;36.73;18.12;;;;;;;2.91;100.00;-19605.82;1706871;81;21521;-59
2022/01/28 09:13:21;;;;;;;41.28;19.30;;;;;;;2.96;100.00;-19770.64;1705670;82;21242;-62
2022/01/28 09:15:28;;;;;;;45.52;20.70;;;;;;;3.03;100.00;-19936.01;1668270;83;21146;-63
2022/01/28 09:17:56;;;;;;;39.33;19.67;;;;;;;3.12;100.00;-20265.49;1673457;83;21125;-60
2022/01/28 09:20:23;;;;;;;38.08;19.80;;;;;;;3.23;100.00;-20595.31;1637127;85;21112;-60
2022/01/28 09:22:49;;;;;;;37.90;19.12;;;;;;;3.34;100.00;-20925.48;1702685;81;21060;-59
2022/01/28 09:25:16;;;;;;;38.92;19.10;;;;;;;3.47;100.00;-21256.02;1702975;81;21143;-60
2022/01/28 09:27:43;;;;;;;35.98;17.80;;;;;;;3.61;100.00;-21750.69;1711291;81;21629;-63
2022/01/28 09:30:11;;;;;;;37.00;18.52;;;;;;;3.76;100.00;-22409.58;1711382;81;21112;-59
2022/01/28 09:32:38;;;;;;;35.30;17.12;;;;;;;3.88;100.00;-22740.32;1708494;81;21745;-59
2022/01/28 09:35:06;;;;;;;31.77;16.75;;;;;;;3.97;100.00;-22906.57;1711608;81;21129;-59
2022/01/28 09:37:34;;;;;;;33.05;17.77;;;;;;;4.05;100.00;-22908.89;1705603;81;21147;-61
2022/01/28 09:40:02;;;;;;;30.20;17.17;;;;;;;4.16;100.00;-23075.99;1700193;81;21085;-61
2022/01/28 09:42:32;;;;;;;34.88;17.95;;;;;;;4.24;100.00;-23242.19;1704527;82;21124;-59
2022/01/28 09:44:59;;;;;;;32.55;18.15;;;;;;;4.28;100.00;-23243.45;1706058;81;21143;-60
2022/01/28 09:47:26;;;;;;;31.23;17.62;;;;;;;4.29;100.00;-23243.76;1712066;82;21538;-60
2022/01/28 09:50:00;;;;;;;34.80;18.65;;;;;;;4.32;100.00;-22916.95;1710903;81;21135;-63
2022/01/28 09:52:27;;;;;;;32.55;17.85;;;;;;;4.32;100.00;-22589.46;1699769;81;21070;-61
2022/01/28 09:54:55;;;;;;;33.15;18.27;;;;;;;4.32;100.00;-22261.95;1710419;81;21657;-61
2022/01/28 09:57:22;;;;;;;37.03;17.98;;;;;;;4.33;100.00;-21934.69;1726302;81;21838;-60
2022/01/28 09:59:49;;;;;;;37.67;18.67;;;;;;;4.32;100.00;-21606.95;1717014;82;21112;-60
2022/01/28 10:02:16;;;;;;;31.62;17.25;;;;;;;4.28;100.00;-21278.34;1720004;81;21104;-60
2022/01/28 10:04:43;;;;;;;38.02;17.90;;;;;;;4.26;100.00;-20950.02;1706978;81;21535;-63
2022/01/28 10:07:11;;;;;;;37.40;18.50;;;;;;;4.22;100.00;-20785.23;1697589;82;21078;-60
2022/01/28 10:09:58;;;;;;;33.70;18.00;;;;;;;4.20;100.00;-20620.87;1702352;81;21750;-60
2022/01/28 10:12:39;;;;;;;35.65;18.32;;;;;;;4.18;100.00;-20456.50;1713901;81;21064;-59
2022/01/28 10:15:17;;;;;;;33.73;18.10;;;;;;;4.14;100.00;-20291.74;1704601;81;21241;-61
2022/01/28 10:17:55;;;;;;;35.45;18.25;;;;;;;4.14;100.00;-20291.61;1705303;81;21132;-59
2022/01/28 10:20:24;;;;;;;33.18;18.07;;;;;;;4.15;100.00;-20292.01;1706615;81;21048;-61
2022/01/28 10:22:57;;;;;;;35.28;17.57;;;;;;;4.19;100.00;-20620.60;1704417;81;20976;-61
2022/01/28 10:25:33;;;;;;;34.65;18.60;;;;;;;4.22;100.00;-20621.28;1700699;82;21588;-60
2022/01/28 10:28:05;;;;;;;;;;;;;;;4.25;100.00;-20786.05;1704199;82;21033;-58
2022/01/28 10:30:40;;;;;;;36.90;18.57;;;;;;;4.26;100.00;-20950.15;1694714;82;20201;-60
2022/01/28 10:33:19;;;;;;;35.98;19.12;;;;;;;4.26;100.00;-20950.15;1688782;83;21998;-60
2022/01/28 10:35:54;;;;;;;33.70;17.10;;;;;;;4.26;100.00;-20786.20;1693344;82;21479;-59
2022/01/28 10:38:38;;;;;;;38.63;18.82;;;;;;;4.22;100.00;-20621.28;1690238;82;21089;-59
2022/01/28 10:41:14;;;;;;;35.25;18.82;;;;;;;4.21;100.00;-20457.31;1697770;82;21765;-62
2022/01/28 10:43:44;;;;;;;37.42;20.77;;;;;;;4.21;100.00;-20293.48;1697644;83;21053;-61
2022/01/28 10:46:11;;;;;;;36.10;20.00;;;;;;;4.30;100.00;-20459.73;1695192;83;21258;-58
2022/01/28 10:49:01;;;;;;;41.88;19.85;;;;;;;4.30;100.00;-20459.73;1696493;83;21036;-59
2022/01/28 10:51:48;;;;;;;36.00;19.67;;;;;;;4.36;100.00;-20461.08;1688503;82;21087;-59
2022/01/28 10:54:21;;;;;;;35.58;18.48;;;;;;;4.36;100.00;-20461.08;1689360;83;21577;-59
2022/01/28 10:56:57;;;;;;;32.90;17.37;;;;;;;4.37;100.00;-20461.35;1705370;83;21086;-59
2022/01/28 10:59:30;;;;;;;32.50;18.42;;;;;;;4.33;100.00;-20132.54;1685539;84;21531;-59
2022/01/28 11:01:57;;;;;;;35.78;17.80;;;;;;;4.34;100.00;-19968.91;1684717;83;21062;-60
2022/01/28 11:04:24;;;;;;;35.70;19.30;;;;;;;4.37;100.00;-19969.70;1683627;83;21104;-61
2022/01/28 11:06:55;;;;;;;34.73;19.23;;;;;;;4.41;100.00;-19970.74;1684012;83;21136;-60
2022/01/28 11:09:22;;;;;;;36.23;18.57;;;;;;;4.49;100.00;-20136.75;1686034;84;21088;-59
2022/01/28 11:11:52;;;;;;;32.60;17.85;;;;;;;4.52;100.00;-20465.38;1684520;83;21736;-58
2022/01/28 11:14:20;;;;;;;36.23;18.25;;;;;;;4.54;100.00;-20465.92;1685164;83;21506;-60
2022/01/28 11:16:47;;;;;;;35.60;18.17;;;;;;;4.58;100.00;-20630.78;1694852;83;21076;-59
2022/01/28 11:19:21;;;;;;;34.90;19.02;;;;;;;4.61;100.00;-20795.38;1681612;84;21850;-59
2022/01/28 11:22:09;;;;;;;34.55;17.92;;;;;;;4.66;100.00;-20796.75;1679122;84;21100;-60
2022/01/28 11:24:58;;;;;;;32.30;17.98;;;;;;;4.66;100.00;-20796.75;1715563;81;21046;-60
2022/01/28 11:27:31;;;;;;;35.17;18.48;;;;;;;4.67;100.00;-20633.09;1703240;82;21061;-60
2022/01/28 11:30:25;;;;;;;34.75;18.82;;;;;;;4.69;100.00;-20469.82;1706920;82;21578;-59
2022/01/28 11:33:08;;;;;;;36.38;19.90;;;;;;;4.83;100.00;-20801.42;1704603;82;21125;-59
2022/01/28 11:35:39;;;;;;;33.85;17.65;;;;;;;4.83;100.00;-20801.42;1705805;82;21040;-59
2022/01/28 11:38:28;;;;;;;33.92;18.12;;;;;;;4.90;100.00;-20967.05;1707362;82;21179;-59
2022/01/28 11:41:00;;;;;;;33.35;18.35;;;;;;;5.03;100.00;-20970.65;1692331;82;21003;-59
2022/01/28 11:43:30;;;;;;;32.42;17.40;;;;;;;5.03;100.00;-20970.65;1688371;82;21135;-60
2022/01/28 11:46:09;;;;;;;33.78;16.77;;;;;;;5.05;100.00;-20807.18;1678248;83;22188;-58
2022/01/28 11:49:02;;;;;;;33.38;17.32;;;;;;;5.10;100.00;-20972.59;1692699;81;21559;-59
2022/01/28 11:51:36;;;;;;;31.70;17.87;;;;;;;5.18;100.00;-20974.66;1697824;82;21093;-61
2022/01/28 11:54:08;;;;;;;33.42;17.55;;;;;;;5.18;100.00;-20974.66;1701293;81;21074;-58
2022/01/28 11:57:13;;;;;;;32.48;17.42;;;;;;;5.24;100.00;-20976.19;1701329;82;21072;-59
2022/01/28 11:59:41;;;;;;;32.25;16.90;;;;;;;5.26;100.00;-20812.79;1703087;82;21101;-59
2022/01/28 12:02:10;;;;;;;29.35;15.32;;;;;;;5.25;100.00;-20648.30;1689775;81;21530;-60
2022/01/28 12:04:39;;;;;;;28.60;16.42;;;;;;;5.26;100.00;-20648.57;1698063;82;21088;-60
2022/01/28 12:07:22;;;;;;;30.37;16.37;;;;;;;5.21;100.00;-20319.16;1710192;82;21573;-59
2022/01/28 12:09:54;;;;;;;28.60;16.02;;;;;;;5.22;100.00;-20319.30;1699518;82;21148;-59
2022/01/28 12:12:55;;;;;;;31.82;17.20;;;;;;;5.22;100.00;-20319.30;1677372;83;21133;-59
2022/01/28 12:15:18;;;;;;;31.87;17.07;;;;;;;5.22;100.00;-20319.30;1689173;83;21106;-60
2022/01/28 12:17:49;;;;;;;31.95;17.25;;;;;;;5.18;100.00;-19990.03;1700684;82;21489;-59
2022/01/28 12:20:24;;;;;;;30.15;16.10;;;;;;;5.12;100.00;-19660.53;1705699;82;21097;-60
2022/01/28 12:23:14;;;;;;;33.33;18.07;;;;;;;5.07;100.00;-19495.15;1707884;81;21095;-60
2022/01/28 12:25:46;;;;;;;33.33;17.73;;;;;;;5.04;100.00;-19330.17;1691876;82;21499;-59
2022/01/28 12:28:28;;;;;;;35.10;17.92;;;;;;;4.94;100.00;-18999.62;1698668;82;21800;-58
2022/01/28 12:31:03;;;;;;;34.10;18.02;;;;;;;4.94;100.00;-18999.62;1697893;81;21005;-60
2022/01/28 12:33:33;;;;;;;36.25;18.90;;;;;;;4.93;100.00;-18999.38;1696675;81;21104;-59